Time;durP1;ratioP1;P1;durP2;ratioP2;P2;SDS_P1;SDS_P2;PMS_P1;PMS_P2;Temp;Humidity;BMP_temperature;BMP_pressure;BME280_temperature;BME280_humidity;BME280_pressure;Samples;Min_cycle;Max_cycle;Signal;HPM_P1;HPM_P2
2023/04/13 00:01:09;;;;;;;18.90;9.50;;;;;;;6.24;90.28;98831.55;106122;1256;59378;-66
2023/04/13 00:04:01;;;;;;;19.20;10.00;;;;;;;6.25;90.58;98832.73;106075;1254;72103;-66
2023/04/13 00:06:52;;;;;;;18.20;9.50;;;;;;;6.24;90.33;98828.40;105810;1262;67579;-65
2023/04/13 00:09:40;;;;;;;18.40;9.20;;;;;;;6.23;90.81;98827.96;106094;1257;73004;-65
2023/04/13 00:12:29;;;;;;;19.00;9.20;;;;;;;6.23;90.81;98828.34;105769;1257;59695;-65
2023/04/13 00:15:18;;;;;;;19.40;9.60;;;;;;;6.24;90.49;98831.36;105998;1257;60847;-66
2023/04/13 00:18:09;;;;;;;19.80;9.90;;;;;;;6.26;90.38;98831.75;106112;1254;71809;-66
2023/04/13 00:20:58;;;;;;;18.10;9.00;;;;;;;6.27;90.61;98830.95;105762;1255;67982;-66
2023/04/13 00:23:47;;;;;;;16.80;8.30;;;;;;;6.28;90.30;98826.12;105769;1262;72960;-65
2023/04/13 00:26:35;;;;;;;17.00;8.90;;;;;;;6.29;90.29;98819.54;105830;1257;59356;-65
2023/04/13 00:29:24;;;;;;;18.30;9.30;;;;;;;6.29;90.09;98821.81;105864;1255;60676;-65
2023/04/13 00:32:12;;;;;;;16.00;8.30;;;;;;;6.29;90.25;98820.59;106096;1258;72020;-64
2023/04/13 00:35:00;;;;;;;16.70;9.00;;;;;;;6.29;90.19;98822.89;105999;1254;69457;-66
2023/04/13 00:37:50;;;;;;;17.80;9.50;;;;;;;6.29;90.36;98817.42;105964;1257;72651;-65
2023/04/13 00:40:39;;;;;;;15.80;8.50;;;;;;;6.30;89.98;98817.92;105987;1254;59316;-65
2023/04/13 00:43:30;;;;;;;15.10;7.70;;;;;;;6.29;89.89;98811.73;105757;1258;60199;-66
2023/04/13 00:46:21;;;;;;;18.70;9.80;;;;;;;6.28;89.96;98800.78;105865;1256;70729;-66
2023/04/13 00:49:11;;;;;;;17.40;8.80;;;;;;;6.24;89.89;98798.27;105866;1254;66801;-66
2023/04/13 00:52:01;;;;;;;17.90;8.70;;;;;;;6.21;89.91;98804.73;105724;1267;73394;-67
2023/04/13 00:54:50;;;;;;;18.40;9.50;;;;;;;6.18;90.32;98810.39;105964;1259;60055;-65
2023/04/13 00:57:40;;;;;;;18.70;8.70;;;;;;;6.15;90.47;98817.12;105763;1260;59893;-66
2023/04/13 01:00:31;;;;;;;16.60;9.00;;;;;;;6.14;90.41;98822.32;105946;1258;72415;-65
2023/04/13 01:03:20;;;;;;;17.70;9.10;;;;;;;6.13;90.55;98825.34;105855;1254;68439;-66
2023/04/13 01:06:40;;;;;;;17.60;8.80;;;;;;;6.13;90.37;98820.99;105796;1254;71086;-66
2023/04/13 01:09:48;;;;;;;16.50;8.90;;;;;;;6.09;90.54;98818.63;105905;1259;59612;-66
2023/04/13 01:12:57;;;;;;;18.60;9.60;;;;;;;6.08;90.59;98820.86;107016;1254;60775;-65
2023/04/13 01:16:18;;;;;;;21.20;10.40;;;;;;;6.07;90.63;98818.62;108707;1254;69981;-67
2023/04/13 01:19:21;;;;;;;19.40;8.80;;;;;;;6.07;90.96;98820.72;107096;1256;67062;-66
2023/04/13 01:22:13;;;;;;;18.50;9.10;;;;;;;6.09;91.01;98808.80;107729;1255;71926;-65
2023/04/13 01:25:58;;;;;;;17.50;8.90;;;;;;;6.09;90.85;98795.92;106554;1253;59320;-66
2023/04/13 01:28:47;;;;;;;17.50;8.30;;;;;;;6.07;91.02;98795.55;105461;1266;60372;-67
2023/04/13 01:31:36;;;;;;;20.90;9.50;;;;;;;6.06;90.74;98800.09;105443;1266;71885;-67
2023/04/13 01:34:26;;;;;;;17.20;8.90;;;;;;;6.03;91.26;98800.98;103884;1266;1003107;-67
2023/04/13 01:37:16;;;;;;;18.70;9.90;;;;;;;6.01;91.09;98802.75;105224;1268;72282;-67
2023/04/13 01:40:11;;;;;;;16.40;8.50;;;;;;;6.00;91.31;98804.04;105180;1263;59875;-67
2023/04/13 01:43:09;;;;;;;18.20;8.80;;;;;;;6.02;91.21;98806.35;105423;1265;59254;-67
2023/04/13 01:46:15;;;;;;;16.60;8.90;;;;;;;6.04;91.16;98804.79;105214;1260;71771;-67
2023/04/13 01:49:20;;;;;;;16.60;8.20;;;;;;;6.05;90.96;98799.83;105417;1267;68745;-68
2023/04/13 01:52:32;;;;;;;18.60;9.00;;;;;;;6.04;90.87;98809.02;105409;1266;74244;-66
2023/04/13 01:55:22;;;;;;;17.60;9.10;;;;;;;6.04;91.05;98804.98;104649;1266;1003034;-68
2023/04/13 01:58:17;;;;;;;15.20;8.10;;;;;;;6.03;91.17;98805.01;105251;1266;60874;-68
2023/04/13 02:01:13;;;;;;;17.00;8.80;;;;;;;6.03;91.10;98806.09;105282;1265;71638;-67
2023/04/13 02:04:02;;;;;;;16.50;8.50;;;;;;;6.03;91.55;98804.11;105362;1260;69050;-68
2023/04/13 02:06:53;;;;;;;17.70;8.80;;;;;;;6.04;91.34;98804.27;105869;1258;73263;-67
2023/04/13 02:09:53;;;;;;;16.30;8.70;;;;;;;6.04;91.24;98799.83;105593;1263;59324;-70
2023/04/13 02:12:43;;;;;;;16.10;8.50;;;;;;;6.04;91.39;98807.42;105792;1259;59416;-70
2023/04/13 02:15:38;;;;;;;18.90;10.10;;;;;;;6.01;91.71;98808.90;105620;1255;71159;-68
2023/04/13 02:18:28;;;;;;;18.80;9.90;;;;;;;5.98;91.93;98812.61;105629;1263;67897;-70
2023/04/13 02:21:17;;;;;;;19.30;9.10;;;;;;;5.97;91.88;98813.77;105627;1264;74455;-70
2023/04/13 02:24:05;;;;;;;18.70;9.70;;;;;;;5.95;91.86;98813.50;105903;1259;59349;-69
2023/04/13 02:26:55;;;;;;;18.30;9.80;;;;;;;5.95;91.78;98816.20;105039;1255;1003067;-69
2023/04/13 02:29:44;;;;;;;18.00;9.60;;;;;;;5.95;91.98;98814.80;105640;1258;71461;-69
2023/04/13 02:32:38;;;;;;;19.10;9.20;;;;;;;5.93;92.11;98811.56;105762;1254;68381;-72
2023/04/13 02:35:27;;;;;;;18.20;9.90;;;;;;;5.92;92.05;98812.89;105549;1256;71486;-70
2023/04/13 02:38:16;;;;;;;20.60;10.30;;;;;;;5.90;92.26;98813.76;105596;1260;59250;-68
2023/04/13 02:41:09;;;;;;;18.30;10.00;;;;;;;5.90;92.35;98821.67;109059;1256;61793;-69
2023/04/13 02:44:00;;;;;;;19.10;9.60;;;;;;;5.92;92.68;98823.97;109142;1256;72226;-69
2023/04/13 02:46:54;;;;;;;18.10;9.30;;;;;;;5.95;92.32;98820.90;109155;1257;68964;-68
2023/04/13 02:49:46;;;;;;;19.50;8.80;;;;;;;6.01;92.29;98828.13;109159;1258;72716;-68
2023/04/13 02:52:47;;;;;;;18.40;8.90;;;;;;;6.08;92.11;98824.22;109126;1255;57151;-69
2023/04/13 02:55:38;;;;;;;17.30;9.50;;;;;;;6.13;91.78;98829.94;108815;1261;60789;-71
2023/04/13 02:58:31;;;;;;;19.00;9.70;;;;;;;6.19;91.71;98830.91;108630;1264;72236;-73
2023/04/13 03:01:23;;;;;;;19.60;9.30;;;;;;;6.24;91.22;98824.30;108651;1269;67893;-69
2023/04/13 03:04:13;;;;;;;17.10;9.20;;;;;;;6.29;91.28;98823.21;108644;1264;72345;-68
2023/04/13 03:07:06;;;;;;;16.60;8.60;;;;;;;6.34;90.87;98826.35;108611;1264;59569;-69
2023/04/13 03:10:02;;;;;;;16.60;9.10;;;;;;;6.40;90.67;98829.05;108629;1265;59071;-69
2023/04/13 03:12:52;;;;;;;15.80;7.80;;;;;;;6.46;90.04;98836.30;108714;1264;72639;-69
2023/04/13 03:15:41;;;;;;;15.80;8.10;;;;;;;6.52;89.71;98834.09;108737;1265;68080;-68
2023/04/13 03:18:31;;;;;;;16.10;8.40;;;;;;;6.57;89.06;98833.13;108399;1270;71838;-70
2023/04/13 03:21:19;;;;;;;16.50;9.00;;;;;;;6.61;89.03;98830.88;108600;1268;57165;-69
2023/04/13 03:24:17;;;;;;;17.20;8.90;;;;;;;6.66;88.78;98831.78;108607;1266;61219;-68
2023/04/13 03:27:05;;;;;;;19.50;8.80;;;;;;;6.70;88.52;98837.77;108798;1263;73042;-70
2023/04/13 03:29:57;;;;;;;16.90;8.80;;;;;;;6.74;88.11;98838.50;108761;1262;66551;-68
2023/04/13 03:32:47;;;;;;;18.60;9.80;;;;;;;6.78;87.78;98839.43;108787;1264;71071;-68
2023/04/13 03:35:35;;;;;;;18.90;8.80;;;;;;;6.81;87.63;98843.18;109089;1255;57820;-69
2023/04/13 03:38:25;;;;;;;16.30;9.00;;;;;;;6.85;87.34;98852.11;109133;1256;60057;-69
2023/04/13 03:41:14;;;;;;;18.60;9.40;;;;;;;6.86;87.41;98859.76;109207;1254;70667;-70
2023/04/13 03:44:08;;;;;;;18.20;9.30;;;;;;;6.87;87.29;98860.35;109129;1258;68155;-68
2023/04/13 03:46:56;;;;;;;18.90;9.30;;;;;;;6.88;87.33;98846.39;109175;1258;72672;-69
2023/04/13 03:49:49;;;;;;;20.10;9.70;;;;;;;6.90;87.07;98832.81;109080;1256;59659;-69
2023/04/13 03:52:37;;;;;;;18.00;10.00;;;;;;;6.93;86.72;98826.74;109072;1255;60570;-66
2023/04/13 03:55:26;;;;;;;20.10;9.70;;;;;;;6.96;86.66;98830.20;109212;1257;70640;-67
2023/04/13 03:58:15;;;;;;;17.80;9.30;;;;;;;6.99;86.69;98835.25;109218;1255;67914;-65
2023/04/13 04:01:05;;;;;;;19.10;10.10;;;;;;;7.01;86.59;98841.66;109073;1257;72926;-70
2023/04/13 04:03:59;;;;;;;19.90;10.30;;;;;;;7.02;86.58;98838.73;109246;1254;60720;-68
2023/04/13 04:06:48;;;;;;;21.10;10.90;;;;;;;7.01;86.46;98841.77;109137;1254;59946;-67
2023/04/13 04:09:36;;;;;;;20.00;11.00;;;;;;;7.04;86.55;98845.63;109183;1258;70996;-68
2023/04/13 04:12:24;;;;;;;18.40;10.30;;;;;;;7.04;86.44;98843.09;109242;1254;66396;-65
2023/04/13 04:15:12;;;;;;;20.70;10.70;;;;;;;7.04;86.21;98844.21;109349;1254;71446;-69
2023/04/13 04:18:03;;;;;;;22.30;11.50;;;;;;;7.03;86.35;98846.38;109341;1254;57103;-67
2023/04/13 04:20:51;;;;;;;19.30;10.30;;;;;;;7.03;86.26;98849.94;109395;1254;58767;-65
2023/04/13 04:23:39;;;;;;;20.40;11.10;;;;;;;7.03;86.14;98847.23;109286;1254;72367;-65
2023/04/13 04:26:28;;;;;;;19.90;10.40;;;;;;;7.05;86.36;98840.04;109230;1254;67712;-67
2023/04/13 04:29:21;;;;;;;20.10;10.80;;;;;;;7.09;86.09;98838.32;109311;1253;72920;-68
2023/04/13 04:32:11;;;;;;;19.10;9.60;;;;;;;7.13;85.73;98845.04;109348;1253;56991;-66
2023/04/13 04:35:02;;;;;;;21.30;10.40;;;;;;;7.16;85.63;98846.02;109413;1253;59020;-66
2023/04/13 04:37:54;;;;;;;17.70;9.30;;;;;;;7.21;85.36;98847.73;109258;1254;71945;-67
2023/04/13 04:40:46;;;;;;;20.60;10.90;;;;;;;7.26;85.12;98849.39;109338;1254;67728;-67
2023/04/13 04:43:36;;;;;;;18.10;10.10;;;;;;;7.33;84.80;98854.67;109110;1254;70955;-65
2023/04/13 04:46:26;;;;;;;19.70;10.80;;;;;;;7.40;84.26;98859.02;109225;1254;59765;-68
2023/04/13 04:49:17;;;;;;;17.80;10.60;;;;;;;7.45;83.44;98865.47;109136;1257;60423;-67
2023/04/13 04:52:05;;;;;;;19.10;9.90;;;;;;;7.52;82.82;98864.88;108906;1256;72247;-67
2023/04/13 04:54:53;;;;;;;22.80;10.30;;;;;;;7.60;82.61;98860.91;108930;1257;67680;-66
2023/04/13 04:57:42;;;;;;;20.00;10.50;;;;;;;7.64;81.66;98862.64;108961;1257;72814;-68
2023/04/13 05:00:31;;;;;;;21.20;10.70;;;;;;;7.69;81.26;98862.27;109050;1257;57260;-66
2023/04/13 05:03:23;;;;;;;18.60;10.30;;;;;;;7.76;81.27;98862.04;109115;1257;59180;-67
2023/04/13 05:06:18;;;;;;;21.90;11.40;;;;;;;7.83;80.59;98860.88;109054;1257;71324;-68
2023/04/13 05:09:07;;;;;;;20.60;10.90;;;;;;;7.90;80.27;98860.27;109069;1257;68266;-68
2023/04/13 05:11:57;;;;;;;22.10;11.10;;;;;;;7.97;79.60;98860.42;109075;1257;72645;-73
2023/04/13 05:14:47;;;;;;;24.20;11.80;;;;;;;8.04;79.39;98860.65;109136;1257;56970;-75
2023/04/13 05:17:36;;;;;;;21.60;11.50;;;;;;;8.12;78.68;98854.19;109027;1257;58930;-76
2023/04/13 05:20:26;;;;;;;20.10;11.80;;;;;;;8.23;78.63;98849.90;109105;1254;72247;-79
2023/04/13 05:23:22;;;;;;;19.10;10.70;;;;;;;8.33;78.00;98850.55;109278;1254;66856;-75
2023/04/13 05:26:16;;;;;;;22.90;11.30;;;;;;;8.44;77.20;98856.19;109269;1254;72395;-77
2023/04/13 05:29:06;;;;;;;21.90;10.40;;;;;;;8.54;76.23;98852.65;109195;1253;56938;-77
2023/04/13 05:32:02;;;;;;;21.20;11.00;;;;;;;8.69;75.49;98850.64;109245;1254;59868;-75
2023/04/13 05:34:51;;;;;;;20.00;10.80;;;;;;;8.79;74.66;98844.94;109502;1253;71277;-76
2023/04/13 05:37:43;;;;;;;20.60;10.70;;;;;;;8.87;73.73;98843.20;109467;1254;66886;-77
2023/04/13 05:40:38;;;;;;;18.50;10.30;;;;;;;8.98;73.81;98845.80;109304;1253;71964;-76
2023/04/13 05:43:28;;;;;;;20.60;11.00;;;;;;;9.06;72.58;98846.46;109251;1252;56874;-76
2023/04/13 05:46:16;;;;;;;20.50;10.70;;;;;;;9.12;71.80;98843.42;109188;1254;59049;-68
2023/04/13 05:49:05;;;;;;;21.30;10.60;;;;;;;9.21;71.91;98850.55;109337;1252;72091;-68
2023/04/13 05:51:53;;;;;;;19.80;10.00;;;;;;;9.33;71.99;98849.50;109462;1253;66411;-66
2023/04/13 05:54:48;;;;;;;18.40;10.10;;;;;;;9.47;71.53;98848.04;109405;1254;71401;-67
2023/04/13 05:57:37;;;;;;;21.50;11.20;;;;;;;9.58;70.33;98844.23;109311;1254;59516;-66
2023/04/13 06:00:29;;;;;;;21.30;10.50;;;;;;;9.65;70.02;98840.69;109381;1254;58734;-69
2023/04/13 06:03:21;;;;;;;21.20;11.30;;;;;;;9.78;69.46;98840.90;109379;1253;72356;-71
2023/04/13 06:06:09;;;;;;;17.80;10.30;;;;;;;9.93;69.37;98843.39;109401;1253;69034;-68
2023/04/13 06:08:57;;;;;;;19.00;10.60;;;;;;;10.03;67.63;98848.09;109376;1254;72782;-67
2023/04/13 06:11:45;;;;;;;17.90;9.40;;;;;;;10.14;67.43;98846.17;109354;1253;56815;-66
2023/04/13 06:14:33;;;;;;;18.50;9.70;;;;;;;10.28;66.31;98848.47;109440;1253;60437;-68
2023/04/13 06:17:21;;;;;;;18.20;10.40;;;;;;;10.41;65.23;98851.09;109328;1254;72287;-66
2023/04/13 06:20:10;;;;;;;18.10;9.50;;;;;;;10.67;65.15;98849.31;109287;1253;67597;-69
2023/04/13 06:22:58;;;;;;;17.40;9.50;;;;;;;11.12;63.68;98850.80;109221;1253;72373;-66
2023/04/13 06:25:46;;;;;;;17.90;9.00;;;;;;;11.75;61.70;98850.88;109225;1253;56959;-72
2023/04/13 06:28:36;;;;;;;17.80;10.20;;;;;;;12.43;58.70;98851.05;109346;1253;58799;-68
2023/04/13 06:31:26;;;;;;;21.40;10.10;;;;;;;13.07;56.31;98859.06;109255;1254;72289;-66
2023/04/13 06:34:17;;;;;;;17.20;9.70;;;;;;;13.57;54.74;98855.27;109302;1253;67849;-68
2023/04/13 06:37:06;;;;;;;18.10;8.90;;;;;;;13.98;53.17;98849.45;109339;1253;71490;-67
2023/04/13 06:40:11;;;;;;;18.00;9.60;;;;;;;14.61;52.03;98852.39;109418;1253;57699;-69
2023/04/13 06:43:04;;;;;;;17.20;10.60;;;;;;;15.29;49.19;98852.25;109370;1254;60473;-68
2023/04/13 06:46:10;;;;;;;16.00;10.00;;;;;;;15.76;47.04;98849.65;109338;1253;72113;-67
2023/04/13 06:49:00;;;;;;;16.00;9.20;;;;;;;16.33;46.53;98842.10;109415;1256;67906;-71
2023/04/13 06:51:49;;;;;;;18.60;9.60;;;;;;;17.31;45.53;98844.66;109283;1253;72420;-69
2023/04/13 06:54:41;;;;;;;14.90;9.10;;;;;;;18.34;41.77;98839.30;109433;1253;56967;-68
2023/04/13 06:57:40;;;;;;;15.90;9.50;;;;;;;19.21;39.80;98837.30;109472;1253;60266;-70
2023/04/13 07:00:28;;;;;;;13.90;9.30;;;;;;;20.20;37.05;98834.98;109367;1252;72214;-68
2023/04/13 07:03:19;;;;;;;15.50;9.20;;;;;;;21.33;35.42;98838.68;109483;1252;67102;-72
2023/04/13 07:06:07;;;;;;;13.30;8.20;;;;;;;22.02;32.78;98841.16;109407;1253;72535;-71
2023/04/13 07:08:56;;;;;;;14.80;8.30;;;;;;;22.66;32.42;98834.44;109444;1252;57698;-72
2023/04/13 07:11:45;;;;;;;12.10;7.40;;;;;;;23.09;31.91;98825.59;109497;1253;60455;-74
2023/04/13 07:14:37;;;;;;;11.40;7.70;;;;;;;23.64;30.54;98827.69;109136;1256;71955;-70
2023/04/13 07:17:25;;;;;;;14.20;8.00;;;;;;;24.02;30.32;98825.44;109147;1256;66714;-70
2023/04/13 07:20:16;;;;;;;11.70;7.20;;;;;;;24.25;28.09;98830.41;108907;1260;71451;-70
2023/04/13 07:23:07;;;;;;;11.90;7.60;;;;;;;24.56;27.60;98829.58;108930;1259;57065;-68
2023/04/13 07:25:57;;;;;;;12.00;7.20;;;;;;;24.63;26.82;98832.51;108906;1259;60661;-69
2023/04/13 07:28:45;;;;;;;12.20;6.70;;;;;;;24.28;26.67;98838.12;108937;1259;72237;-69
2023/04/13 07:31:34;;;;;;;11.20;6.70;;;;;;;24.11;27.17;98835.48;108974;1259;67466;-71
2023/04/13 07:34:21;;;;;;;12.00;7.10;;;;;;;24.26;27.70;98834.27;108987;1259;70231;-73
2023/04/13 07:37:10;;;;;;;12.70;7.40;;;;;;;24.44;26.65;98833.52;109121;1259;58136;-66
2023/04/13 07:39:57;;;;;;;12.30;7.10;;;;;;;24.84;26.63;98833.41;109086;1259;58735;-72
2023/04/13 07:42:49;;;;;;;12.50;7.40;;;;;;;25.29;26.32;98830.96;109015;1259;71952;-71
2023/04/13 07:45:38;;;;;;;13.40;6.90;;;;;;;25.80;25.34;98826.08;109019;1256;66617;-73
2023/04/13 07:48:26;;;;;;;11.70;7.50;;;;;;;26.23;24.61;98832.17;109050;1256;73459;-71
2023/04/13 07:51:19;;;;;;;11.80;7.50;;;;;;;26.47;24.30;98831.93;109229;1253;58911;-70
2023/04/13 07:54:08;;;;;;;12.80;6.90;;;;;;;26.60;23.57;98826.27;109336;1253;61807;-70
2023/04/13 07:56:57;;;;;;;10.30;6.90;;;;;;;26.27;23.08;98831.88;109141;1253;72016;-68
2023/04/13 07:59:47;;;;;;;11.10;6.50;;;;;;;25.66;23.39;98831.69;109214;1253;66580;-69
2023/04/13 08:02:36;;;;;;;11.70;6.80;;;;;;;25.35;23.60;98830.38;109402;1253;71738;-70
2023/04/13 08:05:26;;;;;;;12.00;6.40;;;;;;;25.33;24.60;98830.11;109376;1253;56865;-70
2023/04/13 08:08:15;;;;;;;11.00;6.10;;;;;;;25.41;24.22;98827.15;109228;1253;60122;-70
2023/04/13 08:11:03;;;;;;;9.40;5.60;;;;;;;25.69;23.41;98822.74;109257;1257;71280;-69
2023/04/13 08:13:53;;;;;;;9.30;5.50;;;;;;;25.66;22.81;98828.27;109270;1253;66490;-71
2023/04/13 08:16:41;;;;;;;9.90;5.70;;;;;;;25.63;23.12;98825.98;109376;1253;72659;-69
2023/04/13 08:19:29;;;;;;;9.90;5.40;;;;;;;25.72;23.31;98822.36;109268;1253;57202;-70
2023/04/13 08:22:17;;;;;;;10.40;5.30;;;;;;;26.07;23.28;98822.79;109241;1256;59112;-71
2023/04/13 08:25:06;;;;;;;10.00;6.20;;;;;;;26.23;22.75;98821.65;109410;1254;70218;-72
2023/04/13 08:27:55;;;;;;;10.70;5.80;;;;;;;26.15;22.94;98825.89;109253;1253;67160;-69
2023/04/13 08:30:45;;;;;;;12.40;6.60;;;;;;;25.65;23.14;98822.64;109414;1253;72588;-71
2023/04/13 08:33:33;;;;;;;11.00;5.90;;;;;;;25.79;22.55;98826.67;109248;1253;57666;-69
2023/04/13 08:36:22;;;;;;;11.60;6.30;;;;;;;25.77;21.83;98838.80;109085;1253;60593;-71
2023/04/13 08:39:16;;;;;;;10.10;6.00;;;;;;;25.45;22.57;98833.65;109249;1253;72065;-71
2023/04/13 08:42:07;;;;;;;10.90;5.70;;;;;;;25.19;23.03;98831.50;109283;1253;66922;-68
2023/04/13 08:45:00;;;;;;;11.10;6.80;;;;;;;25.22;23.24;98834.69;109209;1253;72287;-68
2023/04/13 08:47:48;;;;;;;9.60;5.80;;;;;;;25.00;23.19;98838.55;109408;1253;57089;-68
2023/04/13 08:50:38;;;;;;;10.40;5.70;;;;;;;24.81;23.62;98842.48;109485;1253;58788;-68
2023/04/13 08:53:28;;;;;;;9.70;5.10;;;;;;;24.79;23.42;98841.57;109490;1254;70969;-69
2023/04/13 08:56:17;;;;;;;9.10;4.60;;;;;;;24.28;23.22;98841.80;109183;1256;66612;-69
2023/04/13 08:59:06;;;;;;;10.90;5.40;;;;;;;23.68;23.95;98847.83;109131;1256;72412;-69
2023/04/13 09:01:56;;;;;;;11.40;6.50;;;;;;;23.23;24.86;98845.89;109144;1256;57023;-65
2023/04/13 09:04:49;;;;;;;9.90;5.60;;;;;;;23.38;24.94;98849.10;109156;1256;60047;-68
2023/04/13 09:07:39;;;;;;;11.10;5.90;;;;;;;24.25;24.32;98845.66;109149;1256;72177;-68
2023/04/13 09:10:30;;;;;;;10.70;6.00;;;;;;;24.82;23.27;98837.77;109153;1257;67229;-71
2023/04/13 09:13:21;;;;;;;10.90;6.00;;;;;;;25.12;22.58;98839.41;109141;1256;72821;-68
2023/04/13 09:16:08;;;;;;;10.10;6.20;;;;;;;25.24;22.63;98845.37;109094;1256;57116;-69
2023/04/13 09:19:12;;;;;;;10.40;6.10;;;;;;;25.78;22.87;98840.88;109266;1256;60045;-69
2023/04/13 09:22:13;;;;;;;10.10;5.70;;;;;;;25.68;22.08;98836.36;109149;1256;72484;-69
2023/04/13 09:25:06;;;;;;;10.80;5.70;;;;;;;25.91;21.97;98838.83;109167;1256;67356;-69
2023/04/13 09:27:55;;;;;;;13.90;7.70;;;;;;;25.65;22.69;98844.76;109377;1253;72657;-69
2023/04/13 09:30:45;;;;;;;12.80;7.30;;;;;;;25.51;23.00;98848.99;109507;1253;57370;-66
2023/04/13 09:33:45;;;;;;;10.40;6.50;;;;;;;25.78;22.61;98848.55;109493;1252;60471;-68
2023/04/13 09:36:34;;;;;;;11.90;6.60;;;;;;;26.28;22.21;98853.94;109478;1252;73425;-71
2023/04/13 09:39:36;;;;;;;13.20;7.20;;;;;;;26.57;21.88;98849.85;109408;1253;68624;-69
2023/04/13 09:42:24;;;;;;;11.10;6.90;;;;;;;26.80;21.39;98841.95;109363;1252;72512;-68
2023/04/13 09:45:12;;;;;;;11.80;7.20;;;;;;;26.88;21.65;98841.61;109215;1253;58047;-67
2023/04/13 09:48:02;;;;;;;12.80;7.90;;;;;;;26.77;21.80;98840.23;109464;1253;60451;-69
2023/04/13 09:51:04;;;;;;;16.80;8.80;;;;;;;26.50;21.48;98844.67;109382;1253;71021;-68
2023/04/13 09:53:53;;;;;;;10.50;6.60;;;;;;;26.56;22.25;98836.96;109327;1253;67779;-70
2023/04/13 09:56:45;;;;;;;12.50;7.90;;;;;;;27.52;22.43;98834.04;109233;1252;71414;-67
2023/04/13 09:59:34;;;;;;;16.00;9.10;;;;;;;28.31;21.18;98828.09;109454;1254;56894;-69
2023/04/13 10:02:22;;;;;;;11.80;7.80;;;;;;;28.00;20.49;98836.70;109320;1253;224311;-67
2023/04/13 10:05:11;;;;;;;13.10;9.10;;;;;;;28.51;21.74;98838.52;109369;1253;70492;-69
2023/04/13 10:08:01;;;;;;;14.20;9.90;;;;;;;28.05;22.98;98841.66;109518;1253;66440;-68
2023/04/13 10:10:51;;;;;;;14.60;9.60;;;;;;;27.64;24.10;98842.13;109350;1254;72705;-71
2023/04/13 10:13:48;;;;;;;15.20;10.60;;;;;;;27.02;24.72;98844.38;109440;1254;57910;-67
2023/04/13 10:17:08;;;;;;;16.90;11.30;;;;;;;26.68;25.28;98852.44;109453;1252;60844;-69
2023/04/13 10:20:06;;;;;;;15.80;11.00;;;;;;;26.05;26.38;98854.57;109447;1253;70651;-65
2023/04/13 10:22:56;;;;;;;15.70;10.70;;;;;;;25.42;27.24;98852.05;109477;1253;67880;-66
2023/04/13 10:25:56;;;;;;;16.20;11.30;;;;;;;25.24;27.34;98849.21;109343;1254;72873;-67
2023/04/13 10:28:47;;;;;;;14.80;10.70;;;;;;;25.60;27.35;98845.01;109563;1253;56875;-67
2023/04/13 10:31:47;;;;;;;17.00;11.70;;;;;;;26.17;26.01;98847.68;109565;1252;60077;-71
2023/04/13 10:34:37;;;;;;;16.30;10.90;;;;;;;26.37;25.84;98850.35;109494;1253;71111;-66
2023/04/13 10:37:27;;;;;;;16.80;10.80;;;;;;;26.50;26.59;98851.73;109522;1253;67052;-69
2023/04/13 10:40:15;;;;;;;17.80;11.70;;;;;;;26.38;27.01;98850.30;109667;1254;71188;-67
2023/04/13 10:43:03;;;;;;;17.30;11.60;;;;;;;26.25;27.46;98857.39;109650;1254;57030;-67
2023/04/13 10:46:07;;;;;;;18.20;12.70;;;;;;;25.47;28.04;98857.58;109465;1254;60539;-68
2023/04/13 10:48:57;;;;;;;16.60;11.30;;;;;;;24.66;28.94;98853.98;109491;1254;70720;-69
2023/04/13 10:51:46;;;;;;;16.20;11.80;;;;;;;25.01;28.87;98852.50;109284;1254;67636;-68
2023/04/13 10:54:34;;;;;;;15.90;10.30;;;;;;;25.24;28.38;98855.27;109217;1254;72797;-69
2023/04/13 10:57:22;;;;;;;17.50;11.30;;;;;;;25.26;29.14;98858.07;109399;1254;57834;-65
2023/04/13 11:00:20;;;;;;;18.30;11.20;;;;;;;25.56;28.25;98862.70;109216;1254;58986;-69
2023/04/13 11:03:19;;;;;;;17.30;11.40;;;;;;;25.81;28.07;98870.18;109368;1254;72372;-65
2023/04/13 11:06:11;;;;;;;16.60;11.50;;;;;;;25.83;27.70;98873.60;109332;1254;66665;-68
2023/04/13 11:09:05;;;;;;;18.30;11.90;;;;;;;25.96;28.08;98874.55;109213;1254;72618;-67
2023/04/13 11:11:55;;;;;;;17.80;11.90;;;;;;;26.27;27.95;98871.88;109276;1254;56874;-68
2023/04/13 11:14:47;;;;;;;16.40;11.50;;;;;;;26.43;27.37;98873.60;109280;1254;61041;-67
2023/04/13 11:17:35;;;;;;;16.10;12.20;;;;;;;26.27;27.77;98875.96;109293;1254;70950;-67
2023/04/13 11:20:37;;;;;;;16.10;11.20;;;;;;;25.90;28.01;98872.23;109432;1254;67604;-67
2023/04/13 11:23:25;;;;;;;15.60;11.10;;;;;;;25.92;28.16;98875.27;109435;1254;72435;-64
2023/04/13 11:26:13;;;;;;;14.70;10.70;;;;;;;26.07;28.06;98872.30;109231;1254;58243;-67
2023/04/13 11:29:03;;;;;;;16.30;11.90;;;;;;;26.12;27.96;98880.49;109452;1254;59034;-67
2023/04/13 11:31:51;;;;;;;17.80;12.60;;;;;;;26.12;28.17;98879.84;109360;1254;71067;-66
2023/04/13 11:34:41;;;;;;;20.40;14.70;;;;;;;26.18;28.40;98874.20;109263;1254;67638;-68
2023/04/13 11:37:35;;;;;;;18.00;12.70;;;;;;;26.13;27.90;98877.07;109142;1254;72645;-66
2023/04/13 11:40:26;;;;;;;16.80;11.50;;;;;;;26.02;27.85;98879.73;109245;1254;57982;-68
2023/04/13 11:43:17;;;;;;;16.90;11.80;;;;;;;25.90;27.93;98882.91;109322;1254;58701;-67
2023/04/13 11:46:09;;;;;;;17.30;11.80;;;;;;;25.58;28.29;98884.40;109276;1254;71023;-64
2023/04/13 11:48:57;;;;;;;16.00;11.80;;;;;;;25.21;29.23;98879.66;109246;1254;67952;-67
2023/04/13 11:51:48;;;;;;;17.50;11.80;;;;;;;24.90;29.72;98879.02;109202;1254;71146;-65
2023/04/13 11:54:37;;;;;;;17.10;11.10;;;;;;;24.62;30.07;98880.11;109207;1254;56962;-70
2023/04/13 11:57:27;;;;;;;17.00;12.60;;;;;;;24.41;30.21;98882.55;109322;1254;60348;-67
2023/04/13 12:00:22;;;;;;;17.60;11.80;;;;;;;24.27;30.67;98883.45;109441;1253;71969;-65
2023/04/13 12:03:16;;;;;;;18.40;11.10;;;;;;;24.08;31.25;98881.27;109254;1254;67897;-67
2023/04/13 12:06:07;;;;;;;17.10;12.10;;;;;;;23.66;31.26;98883.08;109273;1254;72515;-67
2023/04/13 12:09:08;;;;;;;18.30;12.50;;;;;;;23.06;32.47;98881.71;109191;1254;56996;-68
2023/04/13 12:12:03;;;;;;;19.10;13.00;;;;;;;22.44;33.43;98890.53;109409;1254;60386;-68
2023/04/13 12:15:27;;;;;;;20.80;13.00;;;;;;;21.79;34.58;98894.16;109273;1254;72331;-71
2023/04/13 12:18:42;;;;;;;18.10;12.90;;;;;;;21.02;35.26;98888.86;109347;1254;67623;-68
2023/04/13 12:21:33;;;;;;;20.50;13.30;;;;;;;20.39;36.60;98892.80;109316;1254;71719;-68
2023/04/13 12:24:38;;;;;;;21.40;13.30;;;;;;;19.89;37.97;98895.13;109314;1254;56831;-67
2023/04/13 12:27:27;;;;;;;21.20;14.20;;;;;;;19.52;38.74;98892.94;109270;1254;58754;-70
2023/04/13 12:30:16;;;;;;;19.40;12.50;;;;;;;19.31;39.30;98892.94;109304;1254;72081;-67
2023/04/13 12:33:05;;;;;;;18.60;12.40;;;;;;;19.26;39.58;98893.51;109134;1254;66603;-68
2023/04/13 12:35:53;;;;;;;20.60;12.90;;;;;;;19.15;40.04;98889.38;109357;1254;71739;-67
2023/04/13 12:38:41;;;;;;;20.10;12.40;;;;;;;18.91;40.14;98889.80;109323;1254;58911;-70
2023/04/13 12:41:32;;;;;;;18.40;11.90;;;;;;;18.69;40.33;98891.59;109413;1254;60430;-68
2023/04/13 12:44:21;;;;;;;20.30;13.40;;;;;;;18.50;40.82;98890.39;109444;1254;71399;-67
2023/04/13 12:47:09;;;;;;;20.90;13.70;;;;;;;18.42;40.98;98887.66;109174;1254;67623;-69
2023/04/13 12:49:57;;;;;;;19.80;12.70;;;;;;;18.34;41.34;98886.40;109340;1254;72509;-68
2023/04/13 12:52:46;;;;;;;17.40;11.80;;;;;;;18.22;41.35;98891.52;109342;1254;57649;-68
2023/04/13 12:55:36;;;;;;;18.10;12.90;;;;;;;18.03;41.69;98893.45;109107;1254;60645;-67
2023/04/13 12:58:24;;;;;;;18.30;13.00;;;;;;;17.77;42.22;98895.76;109220;1254;70849;-67
2023/04/13 13:01:12;;;;;;;18.30;12.50;;;;;;;17.63;43.04;98896.27;109237;1254;67925;-68
2023/04/13 13:04:03;;;;;;;18.60;11.30;;;;;;;17.55;43.42;98899.83;109264;1254;72415;-67
2023/04/13 13:06:51;;;;;;;19.80;13.30;;;;;;;17.56;43.86;98898.73;109321;1254;56922;-68
2023/04/13 13:09:41;;;;;;;18.50;12.20;;;;;;;17.54;43.88;98902.17;109339;1254;60132;-67